Time;durP1;ratioP1;P1;durP2;ratioP2;P2;SDS_P1;SDS_P2;PMS_P1;PMS_P2;Temp;Humidity;BMP_temperature;BMP_pressure;BME280_temperature;BME280_humidity;BME280_pressure;Samples;Min_cycle;Max_cycle;Signal;HPM_P1;HPM_P2
2021/04/30 00:01:32;;;;;;;15.10;9.73;;;;;;;11.87;100.00;101322.16;4929710;29;20173;-71
2021/04/30 00:03:57;;;;;;;16.83;9.57;;;;;;;11.87;100.00;101318.69;4927691;29;20268;-73
2021/04/30 00:06:23;;;;;;;14.93;10.23;;;;;;;11.88;100.00;101307.22;4929778;29;20649;-75
2021/04/30 00:08:48;;;;;;;13.90;9.77;;;;;;;11.86;100.00;101309.06;4930667;29;20268;-72
2021/04/30 00:11:14;;;;;;;19.03;9.33;;;;;;;11.83;100.00;101304.00;4931564;29;20578;-72
2021/04/30 00:13:39;;;;;;;15.57;9.73;;;;;;;11.80;100.00;101302.44;4930503;29;20187;-72
2021/04/30 00:16:06;;;;;;;13.03;9.30;;;;;;;11.78;100.00;101296.38;4930984;29;20216;-72
2021/04/30 00:18:32;;;;;;;12.53;9.53;;;;;;;11.76;100.00;101307.94;4930864;29;20185;-74
2021/04/30 00:20:59;;;;;;;14.00;9.90;;;;;;;11.76;100.00;101302.69;4931473;29;20468;-73
2021/04/30 00:23:26;;;;;;;11.80;9.60;;;;;;;11.72;100.00;101311.72;4930081;29;20176;-73
2021/04/30 00:25:56;;;;;;;17.83;10.77;;;;;;;11.67;100.00;101314.63;4928034;29;20436;-73
2021/04/30 00:28:23;;;;;;;20.30;11.30;;;;;;;11.77;100.00;101317.53;4929442;29;20493;-75
2021/04/30 00:30:52;;;;;;;18.93;12.47;;;;;;;11.67;100.00;101315.47;4925858;29;20512;-72
2021/04/30 00:33:18;;;;;;;17.97;11.70;;;;;;;11.65;100.00;101317.38;4926661;29;20436;-71
2021/04/30 00:35:44;;;;;;;18.33;13.70;;;;;;;11.65;100.00;101321.78;4928598;29;20440;-73
2021/04/30 00:38:10;;;;;;;20.83;13.43;;;;;;;11.66;100.00;101326.09;4931658;29;20424;-72
2021/04/30 00:40:36;;;;;;;17.50;12.50;;;;;;;11.71;100.00;101326.66;4928991;29;20618;-71
2021/04/30 00:43:02;;;;;;;18.87;13.83;;;;;;;11.64;100.00;101317.47;4913911;29;20417;-72
2021/04/30 00:45:27;;;;;;;21.83;14.87;;;;;;;11.59;100.00;101323.00;4929658;29;20441;-73
2021/04/30 00:47:54;;;;;;;18.23;13.57;;;;;;;11.60;100.00;101311.53;4930670;29;20291;-73
2021/04/30 00:50:23;;;;;;;25.57;15.33;;;;;;;11.62;100.00;101306.16;4930095;29;20186;-73
2021/04/30 00:52:49;;;;;;;21.40;15.50;;;;;;;11.55;100.00;101305.69;4930417;29;20949;-73
2021/04/30 00:55:16;;;;;;;19.23;14.43;;;;;;;11.46;100.00;101306.25;4928673;29;20443;-73
2021/04/30 00:57:56;;;;;;;23.80;16.80;;;;;;;11.53;100.00;101304.94;4931253;29;20185;-73
2021/04/30 01:00:23;;;;;;;22.47;16.07;;;;;;;11.52;100.00;101310.31;4929111;29;20432;-74
2021/04/30 01:02:49;;;;;;;21.80;15.17;;;;;;;11.52;100.00;101305.91;4931344;29;20429;-72
2021/04/30 01:05:16;;;;;;;21.10;16.07;;;;;;;11.54;100.00;101313.69;4929509;29;20536;-74
2021/04/30 01:07:42;;;;;;;24.93;16.80;;;;;;;11.37;100.00;101318.19;4931219;29;20275;-74
2021/04/30 01:10:08;;;;;;;24.60;15.53;;;;;;;11.38;100.00;101319.88;4930383;29;20953;-75
2021/04/30 01:12:34;;;;;;;24.20;16.17;;;;;;;11.36;100.00;101306.00;4929868;29;20189;-73
2021/04/30 01:15:01;;;;;;;23.50;16.53;;;;;;;11.38;100.00;101308.53;4929150;29;21117;-73
2021/04/30 01:17:27;;;;;;;25.93;17.33;;;;;;;11.38;100.00;101304.09;4930173;29;20424;-72
2021/04/30 01:19:56;;;;;;;21.07;16.60;;;;;;;11.40;100.00;101298.75;4930865;29;20437;-74
2021/04/30 01:22:43;;;;;;;26.07;17.80;;;;;;;11.35;100.00;101299.03;4930410;29;20448;-73
2021/04/30 01:25:12;;;;;;;30.33;16.10;;;;;;;11.36;100.00;101308.63;4928558;29;20910;-73
2021/04/30 01:27:38;;;;;;;21.60;16.37;;;;;;;11.38;100.00;101298.00;4931396;29;20838;-74
2021/04/30 01:30:28;;;;;;;23.63;16.60;;;;;;;11.40;100.00;101294.31;4929724;29;20448;-73
2021/04/30 01:32:54;;;;;;;23.67;16.57;;;;;;;11.55;100.00;101304.84;4917642;29;20514;-74
2021/04/30 01:35:25;;;;;;;22.97;16.53;;;;;;;11.64;100.00;101301.66;4923930;29;20433;-73
2021/04/30 01:37:52;;;;;;;27.43;17.33;;;;;;;11.76;100.00;101298.25;4928579;29;20468;-76
2021/04/30 01:40:21;;;;;;;30.10;16.10;;;;;;;11.78;100.00;101293.72;4932773;29;20520;-74
2021/04/30 01:43:00;;;;;;;26.40;16.20;;;;;;;11.78;100.00;101291.09;4934187;29;20433;-73
2021/04/30 01:45:27;;;;;;;24.13;16.20;;;;;;;11.79;100.00;101289.31;4933287;29;20423;-72
2021/04/30 01:47:52;;;;;;;29.27;15.50;;;;;;;11.76;100.00;101290.34;4934015;29;20492;-74
2021/04/30 01:50:18;;;;;;;22.50;15.50;;;;;;;11.70;100.00;101282.00;4933498;29;20980;-73
2021/04/30 01:52:44;;;;;;;18.97;14.60;;;;;;;11.74;100.00;101283.50;4932927;29;20624;-72
2021/04/30 01:55:10;;;;;;;20.43;14.50;;;;;;;11.75;100.00;101278.13;4935036;29;20263;-74
2021/04/30 01:57:36;;;;;;;17.83;13.47;;;;;;;11.68;100.00;101284.72;4936527;29;20647;-74
2021/04/30 02:00:04;;;;;;;22.07;12.50;;;;;;;11.73;100.00;101280.03;4935892;29;20436;-74
2021/04/30 02:02:47;;;;;;;17.17;11.90;;;;;;;11.70;100.00;101282.84;4932131;29;20460;-74
2021/04/30 02:05:13;;;;;;;17.57;13.30;;;;;;;11.68;100.00;101279.47;4934591;29;20436;-75
2021/04/30 02:07:38;;;;;;;17.73;13.30;;;;;;;11.63;100.00;101281.53;4935867;29;20572;-75
2021/04/30 02:10:10;;;;;;;18.13;13.33;;;;;;;11.65;100.00;101279.66;4936767;29;20228;-74
2021/04/30 02:12:35;;;;;;;19.07;13.30;;;;;;;11.60;100.00;101272.06;4933228;29;20259;-73
2021/04/30 02:15:01;;;;;;;16.03;13.00;;;;;;;11.61;100.00;101272.88;4933806;29;21015;-73
2021/04/30 02:17:30;;;;;;;22.23;15.13;;;;;;;11.54;100.00;101271.59;4936473;29;20169;-75
2021/04/30 02:19:56;;;;;;;21.37;14.17;;;;;;;11.49;100.00;101274.53;4935344;29;20336;-75
2021/04/30 02:22:22;;;;;;;19.07;14.33;;;;;;;11.48;100.00;101278.06;4936306;29;20941;-74
2021/04/30 02:24:48;;;;;;;24.07;15.50;;;;;;;11.50;100.00;101272.72;4934290;29;20433;-74
2021/04/30 02:27:14;;;;;;;23.73;14.43;;;;;;;11.49;100.00;101273.66;4936309;29;20844;-74
2021/04/30 02:29:39;;;;;;;34.43;15.73;;;;;;;11.46;100.00;101272.06;4932263;29;20433;-76
2021/04/30 02:32:05;;;;;;;25.30;15.13;;;;;;;11.39;100.00;101276.84;4934901;29;20223;-73
2021/04/30 02:34:30;;;;;;;28.80;15.30;;;;;;;11.38;100.00;101275.16;4934469;29;20181;-72
2021/04/30 02:36:56;;;;;;;31.37;16.70;;;;;;;11.42;100.00;101275.00;4932176;29;20185;-72
2021/04/30 02:39:23;;;;;;;19.80;14.27;;;;;;;11.43;100.00;101263.53;4927713;29;20219;-73
2021/04/30 02:41:49;;;;;;;26.77;15.57;;;;;;;11.44;100.00;101275.72;4935225;29;20172;-73
2021/04/30 02:44:15;;;;;;;22.00;14.90;;;;;;;11.38;100.00;101282.22;4934872;29;20452;-73
2021/04/30 02:46:40;;;;;;;20.53;15.67;;;;;;;11.43;100.00;101289.84;4934343;29;20565;-73
2021/04/30 02:49:06;;;;;;;25.03;15.43;;;;;;;11.49;100.00;101294.72;4934564;29;20252;-74
2021/04/30 02:51:32;;;;;;;26.80;15.37;;;;;;;11.44;100.00;101286.25;4933932;29;20173;-71
2021/04/30 02:53:58;;;;;;;22.43;16.40;;;;;;;11.53;100.00;101285.69;4933822;29;20169;-73
2021/04/30 02:56:23;;;;;;;29.30;16.43;;;;;;;11.59;100.00;101285.31;4935055;29;20483;-74
2021/04/30 02:58:53;;;;;;;23.70;16.90;;;;;;;11.67;100.00;101277.78;4933304;29;20721;-74
2021/04/30 03:01:19;;;;;;;25.87;16.70;;;;;;;11.79;100.00;101281.41;4935270;29;20661;-74
2021/04/30 03:03:45;;;;;;;24.73;17.10;;;;;;;11.89;100.00;101285.19;4935010;29;20444;-75
2021/04/30 03:06:11;;;;;;;24.30;15.57;;;;;;;11.88;100.00;101289.63;4935688;29;20162;-76
2021/04/30 03:08:37;;;;;;;23.23;15.50;;;;;;;11.91;100.00;101296.47;4931649;29;20288;-73
2021/04/30 03:11:02;;;;;;;29.20;15.67;;;;;;;11.94;100.00;101286.59;4934151;29;20872;-72
2021/04/30 03:13:27;;;;;;;28.93;15.77;;;;;;;12.04;100.00;101286.00;4932839;29;20224;-72
2021/04/30 03:15:53;;;;;;;24.33;13.10;;;;;;;12.09;100.00;101302.34;4933597;29;20195;-73
2021/04/30 03:18:18;;;;;;;25.30;14.37;;;;;;;12.21;100.00;101302.41;4933745;29;20185;-71
2021/04/30 03:20:44;;;;;;;17.67;13.60;;;;;;;12.30;100.00;101303.59;4934204;29;20205;-72
2021/04/30 03:23:09;;;;;;;25.77;13.70;;;;;;;12.29;100.00;101307.19;4933590;29;20181;-72
2021/04/30 03:25:36;;;;;;;21.20;13.93;;;;;;;12.33;100.00;101300.78;4931813;29;20638;-72
2021/04/30 03:28:01;;;;;;;21.40;13.97;;;;;;;12.34;100.00;101306.91;4934110;29;20232;-73
2021/04/30 03:30:27;;;;;;;17.90;13.07;;;;;;;12.40;100.00;101310.00;4933558;29;20527;-72
2021/04/30 03:32:52;;;;;;;25.13;14.00;;;;;;;12.42;100.00;101316.00;4934144;29;20179;-72
2021/04/30 03:35:18;;;;;;;24.23;13.20;;;;;;;12.47;100.00;101320.97;4931436;29;20259;-72
2021/04/30 03:37:45;;;;;;;19.33;13.43;;;;;;;12.46;100.00;101320.09;4932676;29;20185;-72
2021/04/30 03:40:11;;;;;;;22.23;12.90;;;;;;;12.51;100.00;101319.81;4935343;29;20843;-72
2021/04/30 03:42:37;;;;;;;19.90;14.03;;;;;;;12.54;100.00;101318.75;4932090;29;20433;-73
2021/04/30 03:45:05;;;;;;;16.97;12.20;;;;;;;12.61;100.00;101322.69;4932290;29;20429;-74
2021/04/30 03:47:30;;;;;;;19.97;14.43;;;;;;;12.67;100.00;101323.13;4932731;29;20538;-72
2021/04/30 03:49:56;;;;;;;18.10;12.27;;;;;;;12.66;100.00;101318.81;4934430;29;20421;-73
2021/04/30 03:52:21;;;;;;;19.03;13.60;;;;;;;12.77;100.00;101323.34;4933831;29;20177;-75
2021/04/30 03:54:47;;;;;;;17.17;11.90;;;;;;;12.84;100.00;101322.00;4933150;29;20177;-72
2021/04/30 03:57:12;;;;;;;19.13;12.17;;;;;;;12.75;100.00;101331.38;4934611;29;20221;-71
2021/04/30 03:59:38;;;;;;;21.83;11.60;;;;;;;12.81;100.00;101321.38;4933910;29;20207;-70
2021/04/30 04:02:03;;;;;;;16.60;11.73;;;;;;;12.88;100.00;101318.22;4931579;29;20185;-71
2021/04/30 04:04:29;;;;;;;18.27;12.53;;;;;;;12.93;100.00;101317.94;4934650;29;20169;-70
2021/04/30 04:06:54;;;;;;;14.37;10.90;;;;;;;13.00;100.00;101324.47;4933643;29;20169;-73
2021/04/30 04:09:20;;;;;;;15.27;11.83;;;;;;;13.04;100.00;101320.66;4934284;29;20200;-73
2021/04/30 04:11:46;;;;;;;18.63;12.57;;;;;;;13.06;100.00;101332.78;4933478;29;20712;-70
2021/04/30 04:14:11;;;;;;;16.80;12.10;;;;;;;13.05;100.00;101343.47;4933673;29;20264;-73
2021/04/30 04:16:37;;;;;;;19.53;12.60;;;;;;;13.19;100.00;101347.81;4951047;29;20951;-72
2021/04/30 04:19:02;;;;;;;14.43;12.10;;;;;;;13.25;100.00;101344.78;4932650;29;20639;-73
2021/04/30 04:21:28;;;;;;;14.10;10.63;;;;;;;13.26;100.00;101352.59;4934380;29;20165;-75
2021/04/30 04:23:53;;;;;;;19.07;10.97;;;;;;;13.31;100.00;101349.66;4930992;29;20577;-72
2021/04/30 04:26:19;;;;;;;18.13;11.60;;;;;;;13.29;100.00;101348.91;4931607;29;20188;-72
2021/04/30 04:28:45;;;;;;;19.43;11.17;;;;;;;13.44;100.00;101347.00;4933124;29;20772;-72
2021/04/30 04:31:10;;;;;;;12.93;10.00;;;;;;;13.56;100.00;101348.81;4934005;29;20172;-73
2021/04/30 04:33:36;;;;;;;14.17;10.67;;;;;;;13.57;100.00;101353.13;4930058;29;20181;-75
2021/04/30 04:36:01;;;;;;;17.50;12.23;;;;;;;13.65;100.00;101360.50;4930092;29;20276;-70
2021/04/30 04:38:27;;;;;;;17.50;10.93;;;;;;;13.68;100.00;101361.16;4928412;29;20169;-73
2021/04/30 04:40:54;;;;;;;14.20;9.23;;;;;;;13.59;100.00;101361.78;4932432;29;20645;-74
2021/04/30 04:43:19;;;;;;;15.13;9.97;;;;;;;13.70;100.00;101348.69;4930415;29;20436;-73
2021/04/30 04:45:45;;;;;;;13.70;10.17;;;;;;;13.76;100.00;101353.53;4931669;29;20432;-73
2021/04/30 04:48:10;;;;;;;11.87;9.17;;;;;;;13.82;100.00;101354.88;4931680;29;20687;-74
2021/04/30 04:50:36;;;;;;;23.03;9.07;;;;;;;13.85;100.00;101359.97;4933996;29;20618;-74
2021/04/30 04:53:01;;;;;;;13.33;8.87;;;;;;;13.94;100.00;101361.97;4932372;29;20268;-73
2021/04/30 04:55:27;;;;;;;17.10;10.07;;;;;;;14.00;100.00;101353.59;4931732;29;20177;-75
2021/04/30 04:57:52;;;;;;;13.33;8.30;;;;;;;14.28;100.00;101341.03;4933734;29;20200;-76
2021/04/30 05:00:19;;;;;;;17.67;8.53;;;;;;;14.40;100.00;101353.34;4933379;29;20191;-77
2021/04/30 05:02:45;;;;;;;11.80;8.10;;;;;;;14.36;100.00;101349.28;4930857;29;20545;-74
2021/04/30 05:05:11;;;;;;;13.13;9.50;;;;;;;14.50;100.00;101349.09;4932997;29;20956;-74
2021/04/30 05:07:36;;;;;;;12.30;8.20;;;;;;;14.69;100.00;101344.16;4933208;29;20173;-76
2021/04/30 05:10:03;;;;;;;12.73;8.30;;;;;;;14.83;100.00;101342.28;4933525;29;20729;-71
2021/04/30 05:12:28;;;;;;;8.90;7.77;;;;;;;15.02;100.00;101342.59;4933279;29;20243;-74
2021/04/30 05:14:54;;;;;;;9.03;7.80;;;;;;;15.31;100.00;101337.72;4936911;29;20413;-77
2021/04/30 05:17:19;;;;;;;9.70;7.40;;;;;;;15.23;100.00;101340.94;4937566;29;20158;-73
2021/04/30 05:19:45;;;;;;;11.20;7.67;;;;;;;15.20;100.00;101341.19;4937561;29;20217;-73
2021/04/30 05:22:12;;;;;;;9.07;7.10;;;;;;;15.17;100.00;101337.91;4937090;29;20185;-75
2021/04/30 05:24:41;;;;;;;13.60;8.90;;;;;;;15.24;100.00;101332.03;4937584;29;20157;-73
2021/04/30 05:27:10;;;;;;;11.13;7.70;;;;;;;15.21;100.00;101332.28;4936670;29;20417;-74
2021/04/30 05:29:38;;;;;;;11.10;7.97;;;;;;;15.30;100.00;101340.47;4937091;29;20452;-74
2021/04/30 05:32:04;;;;;;;11.00;7.40;;;;;;;15.30;100.00;101340.47;4937440;29;20575;-72
2021/04/30 05:34:29;;;;;;;14.07;9.30;;;;;;;15.34;100.00;101340.13;4936986;29;20803;-73
2021/04/30 05:36:55;;;;;;;12.80;7.70;;;;;;;15.44;100.00;101343.75;4936688;29;20185;-73
2021/04/30 05:39:20;;;;;;;8.80;7.07;;;;;;;15.44;100.00;101340.25;4936249;29;20200;-73
2021/04/30 05:41:46;;;;;;;10.00;7.17;;;;;;;15.36;100.00;101340.84;4936748;29;20209;-73
2021/04/30 05:44:11;;;;;;;20.90;8.50;;;;;;;15.17;100.00;101336.13;4936440;29;20248;-74
2021/04/30 05:46:36;;;;;;;25.90;10.30;;;;;;;15.04;100.00;101351.28;4936360;29;20240;-72
2021/04/30 05:49:04;;;;;;;13.70;8.20;;;;;;;15.33;100.00;101343.72;4936709;29;20200;-74
2021/04/30 05:51:29;;;;;;;13.67;7.67;;;;;;;15.47;100.00;101354.09;4936588;29;20157;-74
2021/04/30 05:53:55;;;;;;;17.80;9.03;;;;;;;15.44;100.00;101348.22;4936775;29;20875;-74
2021/04/30 05:56:20;;;;;;;9.57;8.23;;;;;;;15.61;100.00;101350.41;4936484;29;20217;-72
2021/04/30 05:58:46;;;;;;;15.13;8.50;;;;;;;15.78;100.00;101341.97;4934875;29;20244;-74
2021/04/30 06:01:12;;;;;;;12.03;7.10;;;;;;;16.01;100.00;101344.59;4919901;29;20196;-73
2021/04/30 06:03:37;;;;;;;14.60;9.40;;;;;;;16.19;100.00;101339.66;4935387;29;20425;-74
2021/04/30 06:06:03;;;;;;;12.63;7.77;;;;;;;16.27;100.00;101335.41;4935942;29;20173;-73
2021/04/30 06:08:28;;;;;;;10.73;7.60;;;;;;;16.06;100.00;101345.09;4936406;29;20193;-73
2021/04/30 06:10:54;;;;;;;12.17;7.33;;;;;;;16.03;100.00;101351.50;4936384;29;20765;-73
2021/04/30 06:13:19;;;;;;;10.20;7.50;;;;;;;15.71;100.00;101353.19;4936138;29;20157;-71
2021/04/30 06:15:45;;;;;;;9.33;7.43;;;;;;;15.66;100.00;101353.56;4936291;29;20173;-74
2021/04/30 06:18:10;;;;;;;14.13;8.57;;;;;;;15.85;100.00;101360.88;4935496;29;20634;-72
2021/04/30 06:20:36;;;;;;;13.03;7.47;;;;;;;15.89;100.00;101361.50;4936469;29;20158;-72
2021/04/30 06:23:01;;;;;;;12.73;8.00;;;;;;;15.75;100.00;101358.13;4936244;29;20615;-73
2021/04/30 06:25:26;;;;;;;11.17;9.43;;;;;;;15.98;100.00;101364.25;4935468;29;20173;-73
2021/04/30 06:27:52;;;;;;;9.63;6.93;;;;;;;15.93;100.00;101363.78;4936097;29;20196;-72
2021/04/30 06:30:18;;;;;;;12.30;7.63;;;;;;;16.11;100.00;101364.13;4936452;29;20197;-73
2021/04/30 06:32:43;;;;;;;9.10;7.20;;;;;;;16.20;100.00;101359.91;4936341;29;20165;-72
2021/04/30 06:35:10;;;;;;;15.13;8.63;;;;;;;16.12;100.00;101370.28;4936361;29;20169;-73
2021/04/30 06:37:38;;;;;;;11.37;8.10;;;;;;;16.06;100.00;101369.78;4936623;29;20614;-73
2021/04/30 06:40:05;;;;;;;12.83;6.50;;;;;;;16.03;100.00;101379.81;4935792;29;21005;-73
2021/04/30 06:42:30;;;;;;;12.17;6.83;;;;;;;16.09;100.00;101381.94;4935843;29;20516;-74
2021/04/30 06:44:56;;;;;;;13.00;8.23;;;;;;;16.24;100.00;101387.84;4936178;29;20443;-72
2021/04/30 06:47:22;;;;;;;12.70;7.10;;;;;;;16.14;100.00;101387.75;4950533;29;20169;-73
2021/04/30 06:49:47;;;;;;;8.97;7.37;;;;;;;16.17;100.00;101395.47;4935754;29;20201;-73
2021/04/30 06:52:13;;;;;;;12.30;9.20;;;;;;;15.96;100.00;101395.34;4935561;29;20188;-71
2021/04/30 06:54:39;;;;;;;16.73;8.60;;;;;;;15.98;100.00;101403.19;4935540;29;20165;-72
2021/04/30 06:57:04;;;;;;;10.57;8.13;;;;;;;16.08;100.00;101401.47;4935393;29;20283;-73
2021/04/30 06:59:30;;;;;;;10.33;8.60;;;;;;;16.25;100.00;101397.50;4935561;29;20645;-74
2021/04/30 07:01:55;;;;;;;12.77;9.67;;;;;;;16.59;100.00;101400.91;4935223;29;20618;-74
2021/04/30 07:04:21;;;;;;;12.73;8.50;;;;;;;16.78;100.00;101393.19;4935422;29;20256;-74
2021/04/30 07:06:47;;;;;;;19.73;14.60;;;;;;;17.15;100.00;101393.59;4935707;29;20173;-73
2021/04/30 07:09:12;;;;;;;9.27;6.87;;;;;;;17.25;100.00;101385.69;4935223;28;20193;-73
2021/04/30 07:11:38;;;;;;;12.73;8.50;;;;;;;17.71;100.00;101387.13;4935160;29;20440;-73
2021/04/30 07:14:05;;;;;;;10.87;7.47;;;;;;;17.66;100.00;101383.97;4935206;29;20169;-72
2021/04/30 07:16:31;;;;;;;9.63;6.50;;;;;;;17.88;100.00;101383.81;4950003;29;20913;-73
2021/04/30 07:18:56;;;;;;;14.97;7.27;;;;;;;18.24;100.00;101386.88;4935235;29;20402;-74
2021/04/30 07:21:22;;;;;;;8.73;7.07;;;;;;;18.09;100.00;101390.91;4935490;29;20500;-73
2021/04/30 07:23:47;;;;;;;13.97;7.30;;;;;;;18.11;100.00;101397.75;4935083;29;20173;-71
2021/04/30 07:26:13;;;;;;;8.77;6.43;;;;;;;18.16;100.00;101392.03;4934952;29;20217;-72
2021/04/30 07:28:39;;;;;;;8.87;7.27;;;;;;;18.02;100.00;101394.09;4934942;29;20673;-72
2021/04/30 07:31:04;;;;;;;11.90;7.70;;;;;;;17.94;100.00;101390.44;4935061;29;20207;-71
2021/04/30 07:33:30;;;;;;;9.53;7.30;;;;;;;18.22;100.00;101386.19;4934565;29;20201;-73
2021/04/30 07:35:56;;;;;;;12.30;8.33;;;;;;;18.37;100.00;101376.84;4934835;29;20460;-73
2021/04/30 07:38:21;;;;;;;10.50;7.00;;;;;;;18.58;100.00;101377.53;4934504;29;20184;-73
2021/04/30 07:40:47;;;;;;;10.00;6.90;;;;;;;18.12;100.00;101383.47;4934500;29;20320;-73
2021/04/30 07:43:15;;;;;;;11.60;7.67;;;;;;;17.93;100.00;101394.91;4934652;29;20717;-74
2021/04/30 07:45:44;;;;;;;13.30;7.57;;;;;;;18.02;100.00;101388.78;4934717;29;20168;-71
2021/04/30 07:48:09;;;;;;;10.73;8.17;;;;;;;18.11;100.00;101376.47;4934644;29;20460;-73
2021/04/30 07:50:36;;;;;;;9.83;7.97;;;;;;;18.28;100.00;101377.63;4934420;29;20481;-73
2021/04/30 07:53:02;;;;;;;14.93;7.70;;;;;;;18.40;100.00;101367.72;4934750;29;20270;-73
2021/04/30 07:55:28;;;;;;;10.47;8.10;;;;;;;18.48;100.00;101363.41;4934100;29;20417;-74
2021/04/30 07:57:54;;;;;;;13.10;8.03;;;;;;;18.13;100.00;101369.19;4934356;29;20525;-73
2021/04/30 08:00:19;;;;;;;11.03;8.40;;;;;;;18.15;100.00;101372.59;4934191;29;20568;-74
2021/04/30 08:02:47;;;;;;;12.43;7.47;;;;;;;18.20;100.00;101375.66;4934622;29;20228;-73
2021/04/30 08:05:13;;;;;;;9.33;7.47;;;;;;;18.13;100.00;101374.53;4934001;29;20184;-73
2021/04/30 08:07:40;;;;;;;9.43;6.80;;;;;;;17.81;100.00;101374.69;4934428;29;20501;-73
2021/04/30 08:10:07;;;;;;;7.90;6.70;;;;;;;17.64;100.00;101378.78;4934020;29;20191;-73
2021/04/30 08:12:32;;;;;;;10.53;6.80;;;;;;;17.50;100.00;101370.31;4933775;29;20912;-74
2021/04/30 08:14:58;;;;;;;14.63;7.27;;;;;;;17.34;100.00;101374.28;4934220;29;20417;-72
2021/04/30 08:17:23;;;;;;;11.10;8.00;;;;;;;17.27;100.00;101369.63;4934074;29;20169;-74
2021/04/30 08:19:49;;;;;;;14.53;8.17;;;;;;;17.18;100.00;101369.44;4933736;29;20189;-72
2021/04/30 08:22:14;;;;;;;11.10;6.83;;;;;;;17.20;100.00;101369.31;4934203;29;20213;-72
2021/04/30 08:24:40;;;;;;;9.13;7.20;;;;;;;17.34;100.00;101368.13;4934034;29;20256;-72
2021/04/30 08:27:05;;;;;;;9.17;6.83;;;;;;;17.16;100.00;101359.94;4933925;29;20169;-74
2021/04/30 08:29:31;;;;;;;11.13;7.43;;;;;;;17.15;100.00;101363.53;4934286;29;20232;-73
2021/04/30 08:31:57;;;;;;;8.33;7.47;;;;;;;17.11;100.00;101359.47;4933842;29;20823;-73
2021/04/30 08:34:23;;;;;;;13.23;8.07;;;;;;;17.11;100.00;101370.09;4933568;29;20200;-73
2021/04/30 08:36:48;;;;;;;22.77;7.83;;;;;;;17.32;100.00;101365.63;4933469;29;20204;-74
2021/04/30 08:39:14;;;;;;;11.47;7.60;;;;;;;17.26;100.00;101358.16;4933506;29;20213;-72
2021/04/30 08:41:40;;;;;;;8.00;6.93;;;;;;;17.24;100.00;101362.78;4933552;29;20176;-72
2021/04/30 08:44:06;;;;;;;9.90;7.20;;;;;;;17.33;100.00;101361.97;4933290;29;20165;-73
2021/04/30 08:46:33;;;;;;;11.70;6.70;;;;;;;17.33;100.00;101345.19;4933613;29;20409;-74
2021/04/30 08:49:10;;;;;;;9.13;6.90;;;;;;;17.47;100.00;101344.88;4932815;29;20611;-74
2021/04/30 08:51:36;;;;;;;11.00;7.43;;;;;;;17.46;100.00;101337.88;4933014;29;20878;-73
2021/04/30 08:54:02;;;;;;;9.80;7.07;;;;;;;17.42;100.00;101347.91;4933393;29;20785;-71
2021/04/30 08:56:28;;;;;;;9.50;6.70;;;;;;;17.29;100.00;101349.91;4948112;29;20524;-73
2021/04/30 08:58:54;;;;;;;9.60;7.30;;;;;;;17.27;100.00;101348.38;4933319;29;20774;-73
2021/04/30 09:01:20;;;;;;;8.20;6.07;;;;;;;17.41;100.00;101350.69;4933744;29;20969;-74
2021/04/30 09:03:50;;;;;;;20.30;7.90;;;;;;;17.47;100.00;101339.56;4933625;29;20173;-72
2021/04/30 09:06:31;;;;;;;10.43;6.70;;;;;;;17.61;100.00;101356.97;4933396;29;20460;-73
2021/04/30 09:08:56;;;;;;;8.50;6.90;;;;;;;17.58;100.00;101346.59;4948081;29;21011;-73
2021/04/30 09:11:40;;;;;;;9.90;6.90;;;;;;;17.43;100.00;101360.22;4933148;29;20430;-73
2021/04/30 09:14:32;;;;;;;9.43;6.90;;;;;;;17.44;100.00;101361.88;4933477;29;20164;-73
2021/04/30 09:17:09;;;;;;;11.37;6.80;;;;;;;17.46;100.00;101362.63;4933610;29;20909;-74
2021/04/30 09:19:50;;;;;;;8.47;6.60;;;;;;;17.34;100.00;101363.66;4932701;29;20965;-73
2021/04/30 09:22:19;;;;;;;9.60;6.43;;;;;;;17.47;100.00;101371.44;4933391;29;20420;-74
2021/04/30 09:25:01;;;;;;;42.70;10.63;;;;;;;17.10;100.00;101366.59;4933054;29;20411;-72
2021/04/30 09:27:28;;;;;;;8.97;7.07;;;;;;;17.19;100.00;101362.31;4934925;29;20425;-73
2021/04/30 09:29:53;;;;;;;7.93;6.60;;;;;;;17.24;100.00;101362.78;4933118;29;20523;-74
2021/04/30 09:32:19;;;;;;;9.63;7.20;;;;;;;17.42;100.00;101358.53;4933386;29;20833;-72
2021/04/30 09:34:45;;;;;;;8.53;6.20;;;;;;;17.57;100.00;101350.22;4932498;29;20165;-75
2021/04/30 09:37:13;;;;;;;9.00;6.60;;;;;;;17.69;100.00;101346.50;4933042;29;20205;-74
2021/04/30 09:39:49;;;;;;;13.20;7.50;;;;;;;17.89;100.00;101340.31;4933118;29;20434;-74
2021/04/30 09:42:18;;;;;;;10.70;7.47;;;;;;;17.85;100.00;101333.59;4932965;29;20448;-74
2021/04/30 09:44:49;;;;;;;11.77;7.83;;;;;;;17.94;100.00;101342.56;4932888;29;20431;-72
2021/04/30 09:47:20;;;;;;;10.03;7.30;;;;;;;17.87;100.00;101344.06;4932735;29;20469;-74
2021/04/30 09:49:48;;;;;;;10.13;7.47;;;;;;;17.88;100.00;101338.63;4932705;29;20479;-74
2021/04/30 09:52:13;;;;;;;11.83;8.60;;;;;;;17.80;100.00;101337.63;4932973;29;20464;-73
2021/04/30 09:54:40;;;;;;;11.53;7.57;;;;;;;17.79;100.00;101343.91;4932855;29;20397;-74
2021/04/30 09:57:24;;;;;;;22.17;10.47;;;;;;;17.79;100.00;101342.09;4932179;29;20316;-73
2021/04/30 09:59:56;;;;;;;10.60;7.90;;;;;;;17.97;100.00;101355.56;4932569;29;20394;-73
2021/04/30 10:02:23;;;;;;;12.43;7.60;;;;;;;18.04;100.00;101356.72;4935648;29;20394;-75
2021/04/30 10:04:51;;;;;;;12.40;7.37;;;;;;;17.75;100.00;101351.31;4936094;29;20393;-74
2021/04/30 10:07:28;;;;;;;13.47;7.20;;;;;;;17.83;100.00;101359.44;4936139;29;20789;-73
2021/04/30 10:10:23;;;;;;;9.00;7.67;;;;;;;17.74;100.00;101349.63;4935513;29;20520;-72
2021/04/30 10:12:57;;;;;;;10.03;8.17;;;;;;;17.74;100.00;101358.44;4935143;29;20781;-74
2021/04/30 10:15:23;;;;;;;13.33;8.53;;;;;;;17.82;100.00;101349.78;4950083;29;20421;-74
2021/04/30 10:17:55;;;;;;;10.57;8.00;;;;;;;17.94;100.00;101337.25;4935529;29;20408;-74
2021/04/30 10:20:20;;;;;;;9.60;8.07;;;;;;;17.88;100.00;101343.09;4949947;29;20173;-74
2021/04/30 10:22:46;;;;;;;10.90;8.10;;;;;;;17.95;100.00;101353.06;4936059;29;20409;-72
2021/04/30 10:25:17;;;;;;;13.17;7.67;;;;;;;17.85;100.00;101354.84;4935328;29;20165;-72
2021/04/30 10:27:54;;;;;;;9.63;7.53;;;;;;;17.92;100.00;101355.16;4935777;29;20468;-73
2021/04/30 10:30:30;;;;;;;17.73;12.53;;;;;;;18.02;100.00;101351.53;4935562;29;20452;-73
2021/04/30 10:33:26;;;;;;;16.27;7.80;;;;;;;17.97;100.00;101351.09;4935381;29;20444;-72
2021/04/30 10:36:06;;;;;;;12.03;7.47;;;;;;;18.00;100.00;101344.69;4935492;29;20405;-74
2021/04/30 10:38:41;;;;;;;10.60;6.87;;;;;;;18.23;100.00;101327.53;4935781;29;20462;-72
2021/04/30 10:41:10;;;;;;;10.97;6.40;;;;;;;18.35;100.00;101325.56;4935342;29;20879;-72
2021/04/30 10:43:36;;;;;;;8.03;6.60;;;;;;;18.42;100.00;101323.19;4935212;29;20400;-74
2021/04/30 10:46:21;;;;;;;33.20;7.70;;;;;;;18.38;100.00;101322.63;4935221;29;20492;-73
2021/04/30 10:49:07;;;;;;;7.57;6.77;;;;;;;18.28;100.00;101333.25;4935146;29;20457;-72
2021/04/30 10:51:35;;;;;;;8.27;6.90;;;;;;;18.13;100.00;101339.09;4935229;29;20919;-73
2021/04/30 10:54:22;;;;;;;11.37;7.00;;;;;;;18.37;100.00;101344.91;4934451;29;20398;-74
2021/04/30 10:57:03;;;;;;;13.73;7.47;;;;;;;18.28;100.00;101335.91;4934924;29;20457;-74
2021/04/30 10:59:45;;;;;;;15.47;9.00;;;;;;;18.49;100.00;101334.97;4935039;29;20817;-75
2021/04/30 11:02:23;;;;;;;14.00;8.30;;;;;;;18.52;100.00;101332.88;4934752;29;20401;-73
2021/04/30 11:05:09;;;;;;;12.10;7.30;;;;;;;18.64;100.00;101324.75;4935201;29;20392;-74
2021/04/30 11:07:45;;;;;;;11.30;8.23;;;;;;;18.53;100.00;101329.22;4934765;29;20401;-73
2021/04/30 11:10:23;;;;;;;22.70;9.17;;;;;;;18.60;100.00;101323.34;4934720;29;20428;-74